createdAt,value
2019-02-27T00:01:28.090Z,7.20
2019-02-27T00:04:02.091Z,6.97
2019-02-27T00:06:29.387Z,6.90
2019-02-27T00:09:00.537Z,6.83
2019-02-27T00:11:32.568Z,6.90
2019-02-27T00:14:02.367Z,6.93
2019-02-27T00:16:33.395Z,6.73
2019-02-27T00:19:03.367Z,6.00
2019-02-27T00:21:33.150Z,6.47
2019-02-27T00:24:03.020Z,6.10
2019-02-27T00:26:32.808Z,6.70
2019-02-27T00:29:02.608Z,7.00
2019-02-27T00:31:33.368Z,6.60
2019-02-27T00:34:03.143Z,5.90
2019-02-27T00:36:32.948Z,6.37
2019-02-27T00:39:02.749Z,6.57
2019-02-27T00:41:34.160Z,6.33
2019-02-27T00:44:03.927Z,6.47
2019-02-27T00:46:33.710Z,6.77
2019-02-27T00:49:03.475Z,6.23
2019-02-27T00:51:34.250Z,7.00
2019-02-27T00:54:04.114Z,6.43
2019-02-27T00:56:33.892Z,6.23
2019-02-27T00:59:03.655Z,6.10
2019-02-27T01:01:33.435Z,5.90
2019-02-27T01:04:03.374Z,6.47
2019-02-27T01:06:33.247Z,6.17
2019-02-27T01:09:03.880Z,6.47
2019-02-27T01:11:36.258Z,6.77
2019-02-27T01:14:06.208Z,6.47
2019-02-27T01:16:35.994Z,5.87
2019-02-27T01:19:05.769Z,5.73
2019-02-27T01:21:35.544Z,5.70
2019-02-27T01:24:05.398Z,6.07
2019-02-27T01:26:36.259Z,6.07
2019-02-27T01:29:06.026Z,5.60
2019-02-27T01:31:35.811Z,5.37
2019-02-27T01:34:05.661Z,5.97
2019-02-27T01:36:35.457Z,6.13
2019-02-27T01:39:08.918Z,5.80
2019-02-27T01:41:39.195Z,6.03
2019-02-27T01:44:11.180Z,5.80
2019-02-27T01:46:40.463Z,5.73
2019-02-27T01:49:11.339Z,5.50
2019-02-27T01:51:41.105Z,5.83
2019-02-27T01:54:12.267Z,4.90
2019-02-27T01:56:42.359Z,5.17
2019-02-27T01:59:14.056Z,5.67
2019-02-27T02:01:44.697Z,6.40
2019-02-27T02:04:20.006Z,5.63
2019-02-27T02:06:47.043Z,6.33
2019-02-27T02:09:33.469Z,5.33
2019-02-27T02:12:10.071Z,5.43
2019-02-27T02:14:45.855Z,5.60
2019-02-27T02:17:52.166Z,5.50
2019-02-27T02:20:44.535Z,5.57
2019-02-27T02:23:17.396Z,5.73
2019-02-27T02:26:22.056Z,6.27
2019-02-27T02:29:00.440Z,5.73
2019-02-27T02:31:43.021Z,6.17
2019-02-27T02:34:30.368Z,5.57
2019-02-27T02:37:19.761Z,5.80
2019-02-27T02:39:55.512Z,5.60
2019-02-27T02:42:33.907Z,5.97
2019-02-27T02:45:21.147Z,5.87
2019-02-27T02:47:56.927Z,6.43
2019-02-27T02:50:41.996Z,5.80
2019-02-27T02:53:25.398Z,5.73
2019-02-27T02:55:58.955Z,5.80
2019-02-27T02:58:52.971Z,5.80
2019-02-27T03:01:31.808Z,6.23
2019-02-27T03:04:13.655Z,5.23
2019-02-27T03:06:58.341Z,5.27
2019-02-27T03:09:47.929Z,5.30
2019-02-27T03:12:30.945Z,5.37
2019-02-27T03:15:30.177Z,5.10
2019-02-27T03:18:12.151Z,5.83
2019-02-27T03:20:52.399Z,5.33
2019-02-27T03:23:32.448Z,5.43
2019-02-27T03:26:17.788Z,5.03
2019-02-27T03:29:05.709Z,4.97
2019-02-27T03:31:57.480Z,4.97
2019-02-27T03:34:47.017Z,5.07
2019-02-27T03:37:22.853Z,5.17
2019-02-27T03:40:17.142Z,4.87
2019-02-27T03:43:10.411Z,4.93
2019-02-27T03:45:48.131Z,4.93
2019-02-27T03:48:32.803Z,4.70
2019-02-27T03:51:08.394Z,4.60
2019-02-27T03:53:47.206Z,4.57
2019-02-27T03:56:53.109Z,4.73
2019-02-27T03:59:42.458Z,4.20
2019-02-27T04:02:21.024Z,4.80
2019-02-27T04:05:19.961Z,5.00
2019-02-27T04:08:08.267Z,4.97
2019-02-27T04:10:36.293Z,4.57
2019-02-27T04:13:06.086Z,4.93
2019-02-27T04:15:36.147Z,5.03
2019-02-27T04:18:04.873Z,4.83
2019-02-27T04:20:34.663Z,5.13
2019-02-27T04:23:04.460Z,4.30
2019-02-27T04:25:34.251Z,5.07
2019-02-27T04:28:04.028Z,4.57
2019-02-27T04:30:33.794Z,4.90
2019-02-27T04:33:03.564Z,5.37
2019-02-27T04:35:34.315Z,4.97
2019-02-27T04:38:04.375Z,4.60
2019-02-27T04:40:34.158Z,4.67
2019-02-27T04:43:03.941Z,4.90
2019-02-27T04:45:33.708Z,4.50
2019-02-27T04:48:03.487Z,4.30
2019-02-27T04:50:33.266Z,4.53
2019-02-27T04:53:03.038Z,4.93
2019-02-27T04:55:32.821Z,4.83
2019-02-27T04:58:02.601Z,4.77
2019-02-27T05:00:32.380Z,4.83
2019-02-27T05:03:02.148Z,5.43
2019-02-27T05:05:31.939Z,4.97
2019-02-27T05:08:01.707Z,5.63
2019-02-27T05:10:31.503Z,4.80
2019-02-27T05:13:01.266Z,4.97
2019-02-27T05:15:32.214Z,4.90
2019-02-27T05:18:01.987Z,4.37
2019-02-27T05:20:32.676Z,5.27
2019-02-27T05:23:02.453Z,4.90
2019-02-27T05:25:32.240Z,5.17
2019-02-27T05:28:02.087Z,4.97
2019-02-27T05:30:31.979Z,5.10
2019-02-27T05:33:02.788Z,5.00
2019-02-27T05:35:32.813Z,4.60
2019-02-27T05:38:02.656Z,5.43
2019-02-27T05:40:32.432Z,5.43
2019-02-27T05:43:02.207Z,5.00
2019-02-27T05:45:32.004Z,4.90
2019-02-27T05:48:01.793Z,4.87
2019-02-27T05:50:34.037Z,5.20
2019-02-27T05:53:03.048Z,5.00
2019-02-27T05:55:32.823Z,5.17
2019-02-27T05:58:02.608Z,5.10
2019-02-27T06:00:34.014Z,5.37
2019-02-27T06:03:03.803Z,5.60
2019-02-27T06:05:33.681Z,5.17
2019-02-27T06:08:05.063Z,5.03
2019-02-27T06:10:34.851Z,5.10
2019-02-27T06:13:04.638Z,5.53
2019-02-27T06:15:34.437Z,5.77
2019-02-27T06:18:04.199Z,5.63
2019-02-27T06:20:33.979Z,6.97
2019-02-27T06:23:04.413Z,5.77
2019-02-27T06:25:34.919Z,5.33
2019-02-27T06:28:04.693Z,5.57
2019-02-27T06:30:34.483Z,5.43
2019-02-27T06:33:04.255Z,5.67
2019-02-27T06:35:34.365Z,5.40
2019-02-27T06:38:05.158Z,6.37
2019-02-27T06:40:34.955Z,5.47
2019-02-27T06:43:04.791Z,5.73
2019-02-27T06:45:34.593Z,5.60
2019-02-27T06:48:09.489Z,6.77
2019-02-27T06:50:36.035Z,6.37
2019-02-27T06:53:05.815Z,6.10
2019-02-27T06:55:35.600Z,6.27
2019-02-27T06:58:05.382Z,6.60
2019-02-27T07:00:36.765Z,6.00
2019-02-27T07:03:06.616Z,6.10
2019-02-27T07:05:36.408Z,6.40
2019-02-27T07:08:06.193Z,5.93
2019-02-27T07:10:35.993Z,6.67
2019-02-27T07:13:05.837Z,6.90
2019-02-27T07:15:35.623Z,6.20
2019-02-27T07:18:06.216Z,6.37
2019-02-27T07:20:37.715Z,6.90
2019-02-27T07:23:07.563Z,7.60
2019-02-27T07:25:41.983Z,6.97
2019-02-27T07:28:09.266Z,6.07
2019-02-27T07:30:39.751Z,6.83
2019-02-27T07:33:10.683Z,6.87
2019-02-27T07:35:40.455Z,6.97
2019-02-27T07:38:10.248Z,7.33
2019-02-27T07:40:42.738Z,9.90
2019-02-27T07:43:11.517Z,9.03
2019-02-27T07:45:42.696Z,9.50
2019-02-27T07:48:12.806Z,7.30
2019-02-27T07:50:42.581Z,6.47
2019-02-27T07:53:12.372Z,6.57
2019-02-27T07:55:42.141Z,7.00
2019-02-27T07:58:12.998Z,6.17
2019-02-27T08:00:42.919Z,6.00
2019-02-27T08:03:13.135Z,7.07
2019-02-27T08:05:43.004Z,6.27
2019-02-27T08:08:12.791Z,6.23
2019-02-27T08:10:42.567Z,7.27
2019-02-27T08:13:12.351Z,6.30
2019-02-27T08:15:42.128Z,7.07
2019-02-27T08:18:11.995Z,6.10
2019-02-27T08:20:41.871Z,6.40
2019-02-27T08:23:11.652Z,6.47
2019-02-27T08:25:41.439Z,6.63
2019-02-27T08:28:11.227Z,6.40
2019-02-27T08:30:41.007Z,6.17
2019-02-27T08:33:10.811Z,6.70
2019-02-27T08:35:40.660Z,6.80
2019-02-27T08:38:10.475Z,6.53
2019-02-27T08:40:40.255Z,6.97
2019-02-27T08:43:10.923Z,6.93
2019-02-27T08:45:40.912Z,6.60
2019-02-27T08:48:10.695Z,6.50
2019-02-27T08:50:40.491Z,6.60
2019-02-27T08:53:10.271Z,6.77
2019-02-27T08:55:40.082Z,6.10
2019-02-27T08:58:09.868Z,6.70
2019-02-27T09:00:40.183Z,7.33
2019-02-27T09:03:19.798Z,6.53
2019-02-27T09:05:41.799Z,6.73
2019-02-27T09:08:11.587Z,5.67
2019-02-27T09:10:41.383Z,6.97
2019-02-27T09:13:11.177Z,6.83
2019-02-27T09:15:42.043Z,6.53
2019-02-27T09:18:11.816Z,6.47
2019-02-27T09:20:41.613Z,6.90
2019-02-27T09:23:11.396Z,6.90
2019-02-27T09:25:42.322Z,6.70
2019-02-27T09:28:12.268Z,6.27
2019-02-27T09:30:42.131Z,7.23
2019-02-27T09:33:11.989Z,7.27
2019-02-27T09:35:41.859Z,7.08
2019-02-27T09:38:11.654Z,6.90
2019-02-27T09:40:41.519Z,6.97
2019-02-27T09:43:11.719Z,7.50
2019-02-27T09:45:46.339Z,7.50
2019-02-27T09:48:14.314Z,7.50
2019-02-27T09:50:48.913Z,6.85
2019-02-27T09:53:18.887Z,7.08
2019-02-27T09:55:53.422Z,7.37
2019-02-27T09:58:20.229Z,7.55
2019-02-27T10:01:02.888Z,7.30
2019-02-27T10:03:32.858Z,7.40
2019-02-27T10:06:02.858Z,7.45
2019-02-27T10:08:32.649Z,7.22
2019-02-27T10:11:04.340Z,7.45
2019-02-27T10:13:37.519Z,7.50
2019-02-27T10:16:05.623Z,7.95
2019-02-27T10:18:35.409Z,7.70
2019-02-27T10:21:05.208Z,8.35
2019-02-27T10:23:34.994Z,7.60
2019-02-27T10:26:04.798Z,7.33
2019-02-27T10:28:38.889Z,7.22
2019-02-27T10:31:06.102Z,7.95
2019-02-27T10:33:35.885Z,8.43
2019-02-27T10:36:05.696Z,7.50
2019-02-27T10:38:40.285Z,7.60
2019-02-27T10:41:06.979Z,8.10
2019-02-27T10:43:36.767Z,7.78
2019-02-27T10:46:06.647Z,7.28
2019-02-27T10:48:36.912Z,7.28
2019-02-27T10:51:09.559Z,7.72
2019-02-27T10:53:38.309Z,7.10
2019-02-27T10:56:08.079Z,7.58
2019-02-27T10:58:37.884Z,7.97
2019-02-27T11:01:07.731Z,7.83
2019-02-27T11:03:37.603Z,7.45
2019-02-27T11:06:07.383Z,7.33
2019-02-27T11:08:37.191Z,7.62
2019-02-27T11:11:08.657Z,7.95
2019-02-27T11:13:38.691Z,7.12
2019-02-27T11:16:08.479Z,7.42
2019-02-27T11:18:38.284Z,7.25
2019-02-27T11:21:08.938Z,7.17
2019-02-27T11:23:40.904Z,6.97
2019-02-27T11:26:10.224Z,6.90
2019-02-27T11:28:40.032Z,6.60
2019-02-27T11:31:11.071Z,6.67
2019-02-27T11:33:41.655Z,6.47
2019-02-27T11:36:11.452Z,7.03
2019-02-27T11:38:41.258Z,6.77
2019-02-27T11:41:14.957Z,7.23
2019-02-27T11:43:42.549Z,6.80
2019-02-27T11:46:12.351Z,6.80
2019-02-27T11:48:42.139Z,7.03
2019-02-27T11:51:13.891Z,6.67
2019-02-27T11:53:43.422Z,6.73
2019-02-27T11:56:13.211Z,6.93
2019-02-27T11:58:42.995Z,7.30
2019-02-27T12:01:12.793Z,6.57
2019-02-27T12:03:45.701Z,7.10
2019-02-27T12:06:15.146Z,6.63
2019-02-27T12:08:44.922Z,6.30
2019-02-27T12:11:14.708Z,7.00
2019-02-27T12:13:44.502Z,6.47
2019-02-27T12:16:15.268Z,7.23
2019-02-27T12:18:45.851Z,7.60
2019-02-27T12:21:15.647Z,6.30
2019-02-27T12:23:45.432Z,5.93
2019-02-27T12:26:15.235Z,6.90
2019-02-27T12:28:45.012Z,6.10
2019-02-27T12:31:14.806Z,6.50
2019-02-27T12:33:44.596Z,6.17
2019-02-27T12:36:16.105Z,5.92
2019-02-27T12:38:46.953Z,7.30
2019-02-27T12:41:16.768Z,7.10
2019-02-27T12:43:52.175Z,6.35
2019-02-27T12:46:18.042Z,6.97
2019-02-27T12:48:47.830Z,6.63
2019-02-27T12:51:17.628Z,6.30
2019-02-27T12:53:47.428Z,6.87
2019-02-27T12:56:17.213Z,6.37
2019-02-27T12:58:47.006Z,5.67
2019-02-27T13:01:17.010Z,5.40
2019-02-27T13:03:46.964Z,5.80
2019-02-27T13:06:16.822Z,6.15
2019-02-27T13:08:46.620Z,6.55
2019-02-27T13:11:16.397Z,6.17
2019-02-27T13:13:46.251Z,6.03
2019-02-27T13:16:16.038Z,6.47
2019-02-27T13:18:46.543Z,5.67
2019-02-27T13:21:20.486Z,6.17
2019-02-27T13:23:48.745Z,6.00
2019-02-27T13:26:18.609Z,5.80
2019-02-27T13:28:48.767Z,4.92
2019-02-27T13:31:19.482Z,5.15
2019-02-27T13:33:50.334Z,4.87
2019-02-27T13:36:20.113Z,5.40
2019-02-27T13:38:52.179Z,5.12
2019-02-27T13:41:21.383Z,5.25
2019-02-27T13:43:51.275Z,5.37
2019-02-27T13:46:22.728Z,5.50
2019-02-27T13:48:52.747Z,4.87
2019-02-27T13:51:22.535Z,4.85
2019-02-27T13:53:52.342Z,5.35
2019-02-27T13:56:22.133Z,4.72
2019-02-27T13:58:51.944Z,4.87
2019-02-27T14:01:21.871Z,4.12
2019-02-27T14:03:51.673Z,5.10
2019-02-27T14:06:21.449Z,4.20
2019-02-27T14:08:51.243Z,5.05
2019-02-27T14:11:21.171Z,4.45
2019-02-27T14:13:52.017Z,4.67
2019-02-27T14:16:22.264Z,3.90
2019-02-27T14:18:54.053Z,3.80
2019-02-27T14:21:23.663Z,4.35
2019-02-27T14:23:53.480Z,4.20
2019-02-27T14:26:23.339Z,4.20
2019-02-27T14:28:55.168Z,3.72
2019-02-27T14:31:24.775Z,3.37
2019-02-27T14:33:55.040Z,3.20
2019-02-27T14:36:24.935Z,3.58
2019-02-27T14:38:56.653Z,4.05
2019-02-27T14:41:26.203Z,3.72
2019-02-27T14:43:57.675Z,4.10
2019-02-27T14:46:27.487Z,4.17
2019-02-27T14:48:57.287Z,4.33
2019-02-27T14:51:27.068Z,4.20
2019-02-27T14:53:56.870Z,3.83
2019-02-27T14:56:26.641Z,4.85
2019-02-27T14:58:56.712Z,5.03
2019-02-27T15:01:27.380Z,4.37
2019-02-27T15:04:00.350Z,5.00
2019-02-27T15:06:28.656Z,5.72
2019-02-27T15:09:02.309Z,5.42
2019-02-27T15:11:31.128Z,6.50
2019-02-27T15:14:01.026Z,4.33
2019-02-27T15:16:30.820Z,4.72
2019-02-27T15:19:00.676Z,3.40
2019-02-27T15:21:31.837Z,2.60
2019-02-27T15:24:02.157Z,3.12
2019-02-27T15:26:33.049Z,2.42
2019-02-27T15:29:03.091Z,2.90
2019-02-27T15:31:34.314Z,3.92
2019-02-27T15:34:04.168Z,3.25
2019-02-27T15:36:33.956Z,2.72
2019-02-27T15:39:04.851Z,2.98
2019-02-27T15:41:36.243Z,3.00
2019-02-27T15:44:07.087Z,3.27
2019-02-27T15:46:36.885Z,2.52
2019-02-27T15:49:06.895Z,2.55
2019-02-27T15:51:36.680Z,2.85
2019-02-27T15:54:06.469Z,2.40
2019-02-27T15:56:36.256Z,2.80
2019-02-27T15:59:08.216Z,2.90
2019-02-27T16:01:37.559Z,3.02
2019-02-27T16:04:07.347Z,2.80
2019-02-27T16:06:39.460Z,3.30
2019-02-27T16:09:10.108Z,4.30
2019-02-27T16:11:41.115Z,4.63
2019-02-27T16:14:10.917Z,4.23
2019-02-27T16:16:41.767Z,2.90
2019-02-27T16:19:11.652Z,2.87
2019-02-27T16:21:41.411Z,3.02
2019-02-27T16:24:11.212Z,2.90
2019-02-27T16:26:40.998Z,2.70
2019-02-27T16:29:10.789Z,3.00
2019-02-27T16:31:40.861Z,2.97
2019-02-27T16:34:11.450Z,3.10
2019-02-27T16:36:41.316Z,3.20
2019-02-27T16:39:11.393Z,3.80
2019-02-27T16:41:41.176Z,3.53
2019-02-27T16:44:11.224Z,3.70
2019-02-27T16:46:44.548Z,3.87
2019-02-27T16:49:12.556Z,3.70
2019-02-27T16:51:42.328Z,3.30
2019-02-27T16:54:12.153Z,2.67
2019-02-27T16:56:46.271Z,3.10
2019-02-27T16:59:13.435Z,2.60
2019-02-27T17:01:43.206Z,4.07
2019-02-27T17:04:13.008Z,8.63
2019-02-27T17:06:42.859Z,5.73
2019-02-27T17:09:13.351Z,5.27
2019-02-27T17:11:43.388Z,5.33
2019-02-27T17:14:13.184Z,6.83
2019-02-27T17:16:44.874Z,7.03
2019-02-27T17:19:14.551Z,8.40
2019-02-27T17:21:44.335Z,8.40
2019-02-27T17:24:14.137Z,8.77
2019-02-27T17:26:43.921Z,6.73
2019-02-27T17:29:13.898Z,5.37
2019-02-27T17:31:49.234Z,5.53
2019-02-27T17:34:15.292Z,6.90
2019-02-27T17:36:45.148Z,9.93
2019-02-27T17:39:14.970Z,10.20
2019-02-27T17:41:45.368Z,21.43
2019-02-27T17:44:16.314Z,20.00
2019-02-27T17:46:46.113Z,15.27
2019-02-27T17:49:15.909Z,13.70
2019-02-27T17:51:45.703Z,18.77
2019-02-27T17:54:15.501Z,23.60
2019-02-27T17:56:47.176Z,24.47
2019-02-27T17:59:16.804Z,21.57
2019-02-27T18:01:47.099Z,17.23
2019-02-27T18:04:16.987Z,15.10
2019-02-27T18:06:46.803Z,13.33
2019-02-27T18:09:16.606Z,12.73
2019-02-27T18:11:46.409Z,11.40
2019-02-27T18:14:16.200Z,12.60
2019-02-27T18:16:46.008Z,12.47
2019-02-27T18:19:17.268Z,13.00
2019-02-27T18:21:47.176Z,12.53
2019-02-27T18:24:16.958Z,13.27
2019-02-27T18:26:50.057Z,17.53
2019-02-27T18:29:18.268Z,19.00
2019-02-27T18:31:48.065Z,21.77
2019-02-27T18:34:17.856Z,22.27
2019-02-27T18:36:47.663Z,19.93
2019-02-27T18:39:17.459Z,20.10
2019-02-27T18:41:47.276Z,19.80
2019-02-27T18:44:17.069Z,19.20
2019-02-27T18:46:46.901Z,15.80
2019-02-27T18:49:18.528Z,15.37
2019-02-27T18:51:48.212Z,14.67
2019-02-27T18:54:21.712Z,14.47
2019-02-27T18:56:49.709Z,20.43
2019-02-27T18:59:19.572Z,16.70
2019-02-27T19:01:49.381Z,17.17
2019-02-27T19:04:19.325Z,17.57
2019-02-27T19:06:49.102Z,16.97
2019-02-27T19:09:18.996Z,16.43
2019-02-27T19:11:50.859Z,16.47
2019-02-27T19:14:20.439Z,17.83
2019-02-27T19:16:52.123Z,19.40
2019-02-27T19:19:21.826Z,23.37
2019-02-27T19:21:51.684Z,17.37
2019-02-27T19:24:26.726Z,18.47
2019-02-27T19:26:53.127Z,19.87
2019-02-27T19:29:22.923Z,19.13
2019-02-27T19:31:52.796Z,18.87
2019-02-27T19:34:22.591Z,20.07
2019-02-27T19:36:52.396Z,20.63
2019-02-27T19:39:22.587Z,22.93
2019-02-27T19:41:52.435Z,21.60
2019-02-27T19:44:22.251Z,21.63
2019-02-27T19:46:52.038Z,18.40
2019-02-27T19:49:21.844Z,15.37
2019-02-27T19:51:54.590Z,19.10
2019-02-27T19:54:23.228Z,18.40
2019-02-27T19:56:55.063Z,19.43
2019-02-27T19:59:25.577Z,20.70
2019-02-27T20:01:55.640Z,23.13
2019-02-27T20:04:25.484Z,20.57
2019-02-27T20:06:55.412Z,19.30
2019-02-27T20:09:25.287Z,17.87
2019-02-27T20:11:55.154Z,14.03
2019-02-27T20:14:25.040Z,13.87
2019-02-27T20:16:55.911Z,14.67
2019-02-27T20:19:28.982Z,15.20
2019-02-27T20:21:58.602Z,14.60
2019-02-27T20:24:28.548Z,15.40
2019-02-27T20:26:58.350Z,14.60
2019-02-27T20:29:28.136Z,15.73
2019-02-27T20:31:57.957Z,17.47
2019-02-27T20:34:28.812Z,16.23
2019-02-27T20:36:58.684Z,16.17
2019-02-27T20:39:28.751Z,30.93
2019-02-27T20:41:58.548Z,26.27
2019-02-27T20:44:28.330Z,32.23
2019-02-27T20:46:58.144Z,30.83
2019-02-27T20:49:27.941Z,25.60
2019-02-27T20:51:57.771Z,25.97
2019-02-27T20:54:27.591Z,28.60
2019-02-27T20:56:57.429Z,29.73
2019-02-27T20:59:27.255Z,28.37
2019-02-27T21:01:57.035Z,29.83
2019-02-27T21:04:27.903Z,29.33
2019-02-27T21:06:57.709Z,46.27
2019-02-27T21:09:27.581Z,33.33
2019-02-27T21:11:57.373Z,21.43
2019-02-27T21:14:27.458Z,21.30
2019-02-27T21:16:57.353Z,19.63
2019-02-27T21:19:27.161Z,16.23
2019-02-27T21:21:57.025Z,19.17
2019-02-27T21:24:26.896Z,18.93
2019-02-27T21:26:57.279Z,17.63
2019-02-27T21:29:27.769Z,15.87
2019-02-27T21:31:58.298Z,15.70
2019-02-27T21:34:29.084Z,18.63
2019-02-27T21:36:58.885Z,20.17
2019-02-27T21:39:28.683Z,20.60
2019-02-27T21:41:58.519Z,19.67
2019-02-27T21:44:29.193Z,18.83
2019-02-27T21:46:59.638Z,16.63
2019-02-27T21:49:32.286Z,15.53
2019-02-27T21:52:00.947Z,14.47
2019-02-27T21:54:30.830Z,14.07
2019-02-27T21:57:00.626Z,13.67
2019-02-27T21:59:30.433Z,13.10
2019-02-27T22:02:00.246Z,11.77
2019-02-27T22:04:30.051Z,12.53
2019-02-27T22:06:59.861Z,13.30
2019-02-27T22:09:29.659Z,13.50
2019-02-27T22:12:01.118Z,12.80
2019-02-27T22:14:31.016Z,12.63
2019-02-27T22:17:01.557Z,13.50
2019-02-27T22:19:33.691Z,12.87
2019-02-27T22:22:05.331Z,13.00
2019-02-27T22:24:34.976Z,13.70
2019-02-27T22:27:04.783Z,22.67
2019-02-27T22:29:34.577Z,17.57
2019-02-27T22:32:04.456Z,16.20
2019-02-27T22:34:34.248Z,16.97
2019-02-27T22:37:04.060Z,14.47
2019-02-27T22:39:33.851Z,14.07
2019-02-27T22:42:03.662Z,12.53
2019-02-27T22:44:33.536Z,12.13
2019-02-27T22:47:03.407Z,12.70
2019-02-27T22:49:33.212Z,12.97
2019-02-27T22:52:03.007Z,11.43
2019-02-27T22:54:33.216Z,11.60
2019-02-27T22:57:04.309Z,15.47
2019-02-27T22:59:37.419Z,18.47
2019-02-27T23:02:05.928Z,14.43
2019-02-27T23:04:35.958Z,13.23
2019-02-27T23:07:05.808Z,13.93
2019-02-27T23:09:36.887Z,14.17
2019-02-27T23:12:08.562Z,12.87
2019-02-27T23:14:38.757Z,13.07
2019-02-27T23:17:08.560Z,12.70
2019-02-27T23:19:38.342Z,13.33
2019-02-27T23:22:10.105Z,11.83
2019-02-27T23:24:43.422Z,11.97
2019-02-27T23:27:11.386Z,12.77
2019-02-27T23:29:41.200Z,12.83
2019-02-27T23:32:11.168Z,15.07
2019-02-27T23:34:41.689Z,13.87
2019-02-27T23:37:12.308Z,15.57
2019-02-27T23:39:42.771Z,14.87
2019-02-27T23:42:13.457Z,13.80
2019-02-27T23:44:43.340Z,13.50
2019-02-27T23:47:13.144Z,13.97
2019-02-27T23:49:42.937Z,13.17
2019-02-27T23:52:12.742Z,13.17
2019-02-27T23:54:42.528Z,15.67
2019-02-27T23:57:12.340Z,15.80
2019-02-27T23:59:42.130Z,16.10
